Aérodrome :
LOGIN :

S'inscrire | Disclaimer

   EN    FR    IT 

 










Légende :    VFR   VFR Marginal   IFR   IFR Intensif   IFR Très Intensif
Visi : 
Plafond : 
>= 8 km
>= 3000ft
5 à 8 km
1000 à 3000 ft
1500m à 5 km
500 à 1000 ft
800 à 1500m
200 à 500 ft
< 800m
< 200 ft
Symboles :   Orages  Brouillard  Fortes neiges  Fortes précipitations  Vent > 20 kt
SIGMETs :   Divers  Orages  Givrage  Turbulence  Onde Orograph.  Cendres Volcan.







- Altitude de l'aérodrome : 1090 ft
- Code IATA : CFE
- Voir les cartes d'approche


LFLC - Clermont-Ferrand Auvergne

DERNIER METAR :
  • 230000Z AUTO 20001KT 9999 2700 NSC 02/01 Q1017 TEMPO 4000 BR

METARs EXPIRÉS :
  • 222330Z AUTO 00000KT CAVOK 04/02 Q1018 TEMPO 4000 BR
  • 222300Z AUTO 33001KT CAVOK 04/02 Q1018 TEMPO 4000 BR
  • 222230Z AUTO VRB01KT CAVOK 04/02 Q1018 TEMPO 4000 BR
  • 222200Z AUTO 00000KT CAVOK 05/04 Q1018 NOSIG
  • 222130Z AUTO 00000KT CAVOK 05/03 Q1019 NOSIG

TAF TAF LFLC
Valide du 22 à 21h jusqu'au 23 à 21h UTC


222000Z 2221/2321 VRB03KT CAVOK
PROB40
TEMPO 2300/2309 4000 BR
PROB30
TEMPO 2304/2307 0800 BCFG
BECMG 2309/2311 24010KT CAVOK
BECMG 2318/2320 -RA OVC025
ATIS : +33 4 73 62 74 38
Pas de NOTAMs connus pour ce terrain.



MET'MAP, la Météo Aéronautique d'un coup d'oeil ! - Copyright ORBIFLY Décembre 2007 - Disclaimer

ORBIFLY MET'MAP TEAM :

Programmation & Développement : Alexandra Zaïnal
Conception & Développement : Baudouin d'Aumeries
Co-Programmation & Développement : Marc-Olivier Méhu
Soutien technique & logistique : Manuel Goepfert

Contact : metmap@orbifly.com




SOURCES & CREDITS :

   NOAA